Аэропорт: Атырау. Атырау

ICAO: UATG

METAR:
2021-01-24 19:00:00
UATG 241900Z 12007MPS 1100 R14/1900 BR OVC002 00/00 Q1031 R14/29//60 NOSIG RMK QBB080 QFE775/1033
METAR:
2021-01-24 17:00:00
TAF UATG 241700Z 2418/2518 12007MPS 0300 -FZDZ FZFG OVC001 TX00/2511Z TNM04/2504Z TEMPO 2500/2505 2000 BR OVC004 FM250600 13011MPS 3100 BR BKN011 BKN030